createdAt,value
2022-08-18T00:04:52.807Z,47.15
2022-08-18T00:09:58.781Z,46.81
2022-08-18T00:15:05.660Z,46.90
2022-08-18T00:20:11.490Z,46.66
2022-08-18T00:25:15.420Z,47.14
2022-08-18T00:30:19.262Z,47.45
2022-08-18T00:35:26.111Z,46.79
2022-08-18T00:40:37.718Z,47.01
2022-08-18T00:45:42.298Z,47.11
2022-08-18T00:50:47.997Z,47.29
2022-08-18T00:55:53.719Z,47.43
2022-08-18T01:00:57.003Z,47.36
2022-08-18T01:06:03.345Z,47.25
2022-08-18T01:11:06.335Z,47.59
2022-08-18T01:16:23.263Z,47.45
2022-08-18T01:21:45.655Z,47.25
2022-08-18T01:26:51.207Z,47.11
2022-08-18T01:31:56.291Z,47.48
2022-08-18T01:36:59.418Z,47.06
2022-08-18T01:42:04.779Z,47.15
2022-08-18T01:47:07.729Z,46.76
2022-08-18T01:52:10.730Z,46.75
2022-08-18T01:57:15.258Z,47.41
2022-08-18T02:02:24.493Z,47.36
2022-08-18T02:07:32.655Z,47.79
2022-08-18T02:12:40.695Z,47.25
2022-08-18T02:17:44.926Z,47.55
2022-08-18T02:22:49.498Z,47.23
2022-08-18T02:27:53.684Z,47.79
2022-08-18T02:32:59.038Z,47.03
2022-08-18T02:38:01.808Z,47.30
2022-08-18T02:43:10.283Z,47.23
2022-08-18T02:48:13.806Z,46.86
2022-08-18T02:53:21.968Z,47.18
2022-08-18T02:58:29.320Z,47.08
2022-08-18T03:03:34.489Z,47.35
2022-08-18T03:08:37.255Z,47.16
2022-08-18T03:13:41.315Z,46.96
2022-08-18T03:18:44.754Z,46.83
2022-08-18T03:24:00.938Z,46.60
2022-08-18T03:29:05.796Z,46.94
2022-08-18T03:34:08.657Z,46.23
2022-08-18T03:39:12.331Z,46.63
2022-08-18T03:44:16.508Z,46.66
2022-08-18T03:49:20.349Z,46.92
2022-08-18T03:54:23.211Z,49.53
2022-08-18T03:59:27.367Z,49.19
2022-08-18T04:04:30.499Z,49.14
2022-08-18T04:09:33.596Z,48.74
2022-08-18T04:14:37.645Z,49.04
2022-08-18T04:19:40.765Z,48.88
2022-08-18T04:24:44.568Z,49.74
2022-08-18T04:29:49.485Z,50.35
2022-08-18T04:34:52.231Z,50.61
2022-08-18T04:39:54.966Z,51.30
2022-08-18T04:44:59.145Z,51.17
2022-08-18T04:50:02.056Z,52.04
2022-08-18T04:55:05.628Z,51.32
2022-08-18T05:00:12.033Z,52.00
2022-08-18T05:05:14.794Z,51.98
2022-08-18T05:10:18.521Z,51.86
2022-08-18T05:15:22.682Z,52.16
2022-08-18T05:20:25.397Z,51.97
2022-08-18T05:25:29.791Z,52.88
2022-08-18T05:30:33.933Z,52.18
2022-08-18T05:35:39.337Z,51.95
2022-08-18T05:40:42.245Z,51.45
2022-08-18T05:45:46.613Z,51.54
2022-08-18T05:50:49.497Z,51.04
2022-08-18T05:56:16.624Z,50.43
2022-08-18T06:01:22.625Z,50.68
2022-08-18T06:06:27.851Z,50.91
2022-08-18T06:11:30.580Z,51.52
2022-08-18T06:16:44.585Z,50.71
2022-08-18T06:21:50.875Z,49.33
2022-08-18T06:26:58.104Z,48.92
2022-08-18T06:32:07.470Z,48.68
2022-08-18T06:37:12.688Z,48.25
2022-08-18T06:42:18.376Z,48.64
2022-08-18T06:47:28.420Z,48.41
2022-08-18T06:52:33.570Z,48.34
2022-08-18T06:57:38.115Z,48.56
2022-08-18T07:02:48.942Z,48.43
2022-08-18T07:08:07.333Z,48.58
2022-08-18T07:13:17.250Z,48.72
2022-08-18T07:18:26.451Z,48.60
2022-08-18T07:23:31.890Z,48.54
2022-08-18T07:28:36.771Z,48.35
2022-08-18T07:33:41.006Z,47.65
2022-08-18T07:38:46.433Z,48.10
2022-08-18T07:43:57.920Z,48.26
2022-08-18T07:49:05.363Z,48.33
2022-08-18T07:54:25.403Z,47.93
2022-08-18T07:59:35.977Z,47.92
2022-08-18T08:04:43.412Z,48.30
2022-08-18T08:09:52.179Z,48.27
2022-08-18T08:14:59.308Z,48.22
2022-08-18T08:20:12.863Z,47.80
2022-08-18T08:25:44.584Z,48.37
2022-08-18T08:30:44.119Z,48.31
2022-08-18T08:35:50.954Z,48.33
2022-08-18T08:40:55.272Z,48.18
2022-08-18T08:46:08.198Z,48.44
2022-08-18T08:51:30.231Z,48.36
2022-08-18T08:56:36.168Z,48.19
2022-08-18T09:01:44.755Z,48.26
2022-08-18T09:06:52.354Z,48.25
2022-08-18T09:12:26.532Z,48.33
2022-08-18T09:17:45.662Z,48.21
2022-08-18T09:22:52.148Z,47.99
2022-08-18T09:28:10.909Z,48.13
2022-08-18T09:33:32.452Z,47.82
2022-08-18T09:38:56.280Z,48.10
2022-08-18T09:44:17.779Z,47.70
2022-08-18T09:49:47.605Z,48.50
2022-08-18T09:54:54.700Z,48.35
2022-08-18T10:00:24.411Z,48.05
2022-08-18T10:05:31.240Z,48.22
2022-08-18T10:11:01.645Z,48.22
2022-08-18T10:16:10.450Z,48.50
2022-08-18T10:21:20.971Z,49.17
2022-08-18T10:26:55.442Z,49.42
2022-08-18T10:32:49.486Z,49.80
2022-08-18T10:37:58.435Z,50.14
2022-08-18T10:43:26.739Z,50.40
2022-08-18T10:48:34.968Z,50.23
2022-08-18T10:53:46.433Z,50.29
2022-08-18T10:59:08.297Z,50.49
2022-08-18T11:10:04.852Z,50.21
2022-08-18T11:15:22.376Z,50.47
2022-08-18T11:20:30.042Z,50.28
2022-08-18T11:25:35.571Z,50.13
2022-08-18T11:36:01.760Z,50.02
2022-08-18T11:41:17.339Z,49.86
2022-08-18T11:51:55.983Z,50.09
2022-08-18T11:57:42.022Z,50.09
2022-08-18T12:02:50.239Z,50.08
2022-08-18T12:07:57.542Z,49.93
2022-08-18T12:13:02.811Z,49.91
2022-08-18T12:18:06.340Z,49.97
2022-08-18T12:23:09.165Z,50.06
2022-08-18T12:28:13.253Z,50.08
2022-08-18T12:33:17.629Z,49.92
2022-08-18T12:38:28.258Z,49.96
2022-08-18T12:43:32.651Z,49.92
2022-08-18T12:48:37.789Z,49.99
2022-08-18T12:53:58.517Z,50.14
2022-08-18T12:59:06.301Z,50.32
2022-08-18T13:04:13.280Z,50.68
2022-08-18T13:09:34.779Z,51.13
2022-08-18T13:14:40.983Z,51.35
2022-08-18T13:19:46.460Z,51.45
2022-08-18T13:24:49.232Z,51.56
2022-08-18T13:29:56.553Z,51.74
2022-08-18T13:34:59.517Z,51.34
2022-08-18T13:40:07.212Z,51.36
2022-08-18T13:45:22.908Z,51.22
2022-08-18T13:50:29.981Z,51.24
2022-08-18T13:55:33.013Z,51.39
2022-08-18T14:00:37.278Z,51.64
2022-08-18T14:05:51.757Z,51.73
2022-08-18T14:10:57.270Z,51.95
2022-08-18T14:16:02.028Z,51.86
2022-08-18T14:21:23.608Z,52.22
2022-08-18T14:26:44.218Z,52.14
2022-08-18T14:31:48.991Z,52.34
2022-08-18T14:36:56.455Z,52.51
2022-08-18T14:41:59.754Z,52.50
2022-08-18T14:47:07.441Z,52.57
2022-08-18T14:52:14.016Z,52.62
2022-08-18T14:57:17.356Z,52.64
2022-08-18T15:02:27.036Z,52.50
2022-08-18T15:07:29.785Z,52.61
2022-08-18T15:12:35.739Z,51.88
2022-08-18T15:17:40.258Z,51.29
2022-08-18T15:23:01.028Z,51.33
2022-08-18T15:28:04.593Z,51.59
2022-08-18T15:33:10.395Z,51.52
2022-08-18T15:38:19.058Z,51.78
2022-08-18T15:43:21.983Z,51.71
2022-08-18T15:48:29.748Z,51.83
2022-08-18T15:53:32.909Z,52.09
2022-08-18T15:58:35.887Z,52.17
2022-08-18T16:03:39.985Z,52.77
2022-08-18T16:08:43.236Z,52.71
2022-08-18T16:13:46.253Z,52.06
2022-08-18T16:18:50.986Z,52.28
2022-08-18T16:23:55.864Z,51.89
2022-08-18T16:29:01.647Z,52.06
2022-08-18T16:34:06.023Z,52.80
2022-08-18T16:39:08.771Z,52.21
2022-08-18T16:44:11.970Z,52.04
2022-08-18T16:49:16.113Z,51.66
2022-08-18T16:54:18.889Z,52.01
2022-08-18T16:59:39.024Z,49.63
2022-08-18T17:04:43.097Z,48.67
2022-08-18T17:09:45.886Z,48.16
2022-08-18T17:14:52.001Z,47.94
2022-08-18T17:19:56.306Z,48.20
2022-08-18T17:25:00.186Z,47.45
2022-08-18T17:30:05.533Z,47.74
2022-08-18T17:35:14.577Z,47.77
2022-08-18T17:40:20.019Z,47.87
2022-08-18T17:45:24.526Z,48.50
2022-08-18T17:50:49.023Z,49.10
2022-08-18T17:55:53.256Z,49.39
2022-08-18T18:00:55.950Z,49.06
2022-08-18T18:06:03.670Z,49.69
2022-08-18T18:11:11.062Z,50.14
2022-08-18T18:16:21.507Z,51.52
2022-08-18T18:21:55.315Z,52.73
2022-08-18T18:26:49.035Z,53.49
2022-08-18T18:32:00.716Z,54.46
2022-08-18T18:37:05.021Z,54.93
2022-08-18T18:42:15.720Z,54.18
2022-08-18T18:47:34.830Z,54.06
2022-08-18T18:52:43.454Z,53.22
2022-08-18T18:57:49.579Z,52.26
2022-08-18T19:03:03.693Z,52.14
2022-08-18T19:08:16.666Z,52.20
2022-08-18T19:13:24.817Z,53.08
2022-08-18T19:18:38.606Z,54.07
2022-08-18T19:23:45.411Z,54.10
2022-08-18T19:29:11.864Z,53.17
2022-08-18T19:34:13.737Z,52.69
2022-08-18T19:39:24.589Z,52.38
2022-08-18T19:44:38.054Z,52.12
2022-08-18T19:49:47.028Z,52.35
2022-08-18T19:54:59.143Z,52.09
2022-08-18T20:00:25.126Z,51.48
2022-08-18T20:05:31.734Z,51.85
2022-08-18T20:10:48.671Z,54.26
2022-08-18T20:16:42.599Z,56.35
2022-08-18T20:21:48.238Z,56.81
2022-08-18T20:26:52.886Z,58.30
2022-08-18T20:32:00.174Z,58.56
2022-08-18T20:37:10.046Z,60.20
2022-08-18T20:42:51.616Z,58.44
2022-08-18T20:48:27.639Z,61.55
2022-08-18T20:53:55.415Z,62.91
2022-08-18T20:59:08.526Z,62.59
2022-08-18T21:04:11.832Z,62.42
2022-08-18T21:09:18.117Z,59.48
2022-08-18T21:14:29.773Z,59.32
2022-08-18T21:19:32.792Z,58.62
2022-08-18T21:24:36.474Z,59.70
2022-08-18T21:29:47.170Z,59.40
2022-08-18T21:34:52.137Z,59.12
2022-08-18T21:39:57.510Z,59.55
2022-08-18T21:45:01.915Z,60.06
2022-08-18T21:50:10.693Z,59.57
2022-08-18T21:55:26.393Z,58.68
2022-08-18T22:00:31.261Z,58.45
2022-08-18T22:05:57.968Z,56.81
2022-08-18T22:12:01.551Z,56.70
2022-08-18T22:17:33.468Z,56.26
2022-08-18T22:22:53.843Z,57.62
2022-08-18T22:27:59.065Z,56.95
2022-08-18T22:33:03.177Z,56.34
2022-08-18T22:38:05.940Z,56.61
2022-08-18T22:43:08.752Z,56.23
2022-08-18T22:48:13.537Z,57.24
2022-08-18T22:53:16.372Z,59.70
2022-08-18T22:58:25.945Z,62.21
2022-08-18T23:03:34.503Z,62.93
2022-08-18T23:08:54.588Z,61.87
2022-08-18T23:13:58.961Z,60.79
2022-08-18T23:19:03.506Z,60.46
2022-08-18T23:24:06.480Z,59.44
2022-08-18T23:29:10.813Z,59.01
2022-08-18T23:34:17.433Z,60.71
2022-08-18T23:39:20.101Z,61.28
2022-08-18T23:44:23.735Z,60.75
2022-08-18T23:49:31.489Z,60.67
2022-08-18T23:54:35.306Z,60.24
2022-08-18T23:59:38.047Z,62.40
